createdAt,value
2023-04-10T00:00:09.327Z,987.01
2023-04-10T00:01:09.348Z,987.01
2023-04-10T00:02:09.408Z,987.05
2023-04-10T00:03:09.508Z,987.02
2023-04-10T00:04:09.393Z,986.99
2023-04-10T00:05:09.341Z,986.96
2023-04-10T00:06:09.248Z,987.01
2023-04-10T00:07:09.255Z,987.00
2023-04-10T00:08:09.235Z,986.95
2023-04-10T00:09:09.225Z,986.98
2023-04-10T00:10:09.268Z,986.96
2023-04-10T00:11:09.199Z,986.88
2023-04-10T00:12:09.188Z,986.82
2023-04-10T00:13:09.158Z,986.87
2023-04-10T00:14:09.147Z,986.86
2023-04-10T00:15:09.125Z,986.88
2023-04-10T00:16:09.143Z,986.82
2023-04-10T00:17:09.118Z,986.85
2023-04-10T00:18:09.118Z,986.82
2023-04-10T00:19:09.097Z,986.86
2023-04-10T00:20:09.072Z,986.90
2023-04-10T00:21:09.093Z,986.87
2023-04-10T00:22:09.076Z,986.88
2023-04-10T00:23:09.032Z,986.96
2023-04-10T00:24:09.026Z,986.89
2023-04-10T00:25:09.002Z,986.88
2023-04-10T00:26:09.011Z,986.88
2023-04-10T00:27:08.981Z,986.87
2023-04-10T00:28:08.965Z,986.81
2023-04-10T00:29:08.953Z,986.74
2023-04-10T00:30:08.944Z,986.80
2023-04-10T00:31:08.950Z,986.80
2023-04-10T00:32:08.951Z,986.84
2023-04-10T00:33:08.978Z,986.80
2023-04-10T00:34:08.903Z,986.81
2023-04-10T00:35:08.886Z,986.83
2023-04-10T00:36:08.925Z,986.74
2023-04-10T00:37:08.858Z,986.83
2023-04-10T00:38:08.863Z,986.83
2023-04-10T00:39:08.826Z,986.81
2023-04-10T00:40:08.837Z,986.80
2023-04-10T00:41:08.853Z,986.76
2023-04-10T00:42:08.796Z,986.82
2023-04-10T00:43:08.791Z,986.74
2023-04-10T00:44:08.775Z,986.74
2023-04-10T00:45:08.780Z,986.76
2023-04-10T00:46:08.816Z,986.71
2023-04-10T00:47:08.724Z,986.68
2023-04-10T00:48:08.749Z,986.70
2023-04-10T00:49:08.711Z,986.67
2023-04-10T00:50:08.700Z,986.68
2023-04-10T00:51:08.737Z,986.67
2023-04-10T00:52:08.683Z,986.63
2023-04-10T00:53:08.660Z,986.64
2023-04-10T00:54:08.641Z,986.65
2023-04-10T00:55:08.634Z,986.67
2023-04-10T00:56:08.648Z,986.57
2023-04-10T00:57:08.609Z,986.56
2023-04-10T00:58:08.595Z,986.58
2023-04-10T00:59:08.583Z,986.58
2023-04-10T01:00:08.574Z,986.58
2023-04-10T01:01:08.658Z,986.55
2023-04-10T01:02:08.625Z,986.56
2023-04-10T01:03:08.769Z,986.58
2023-04-10T01:04:08.616Z,986.61
2023-04-10T01:05:08.508Z,986.59
2023-04-10T01:06:08.510Z,986.62
2023-04-10T01:07:08.479Z,986.65
2023-04-10T01:08:08.480Z,986.66
2023-04-10T01:09:08.463Z,986.60
2023-04-10T01:10:08.483Z,986.72
2023-04-10T01:11:08.432Z,986.69
2023-04-10T01:12:08.423Z,986.74
2023-04-10T01:13:08.417Z,986.74
2023-04-10T01:14:08.404Z,986.78
2023-04-10T01:15:08.385Z,986.77
2023-04-10T01:16:08.379Z,986.77
2023-04-10T01:17:08.558Z,986.84
2023-04-10T01:18:08.362Z,986.72
2023-04-10T01:19:08.313Z,986.75
2023-04-10T01:20:08.339Z,986.76
2023-04-10T01:21:08.307Z,986.71
2023-04-10T01:22:08.284Z,986.74
2023-04-10T01:23:08.265Z,986.68
2023-04-10T01:24:08.270Z,986.71
2023-04-10T01:25:08.267Z,986.72
2023-04-10T01:26:08.237Z,986.73
2023-04-10T01:27:08.213Z,986.60
2023-04-10T01:28:08.212Z,986.68
2023-04-10T01:29:08.202Z,986.66
2023-04-10T01:30:08.179Z,986.59
2023-04-10T01:31:08.223Z,986.68
2023-04-10T01:32:08.168Z,986.58
2023-04-10T01:33:08.152Z,986.56
2023-04-10T01:34:08.201Z,986.64
2023-04-10T01:35:08.125Z,986.53
2023-04-10T01:36:08.183Z,986.49
2023-04-10T01:37:08.110Z,986.58
2023-04-10T01:38:08.090Z,986.52
2023-04-10T01:39:08.071Z,986.56
2023-04-10T01:40:08.065Z,986.51
2023-04-10T01:41:08.054Z,986.46
2023-04-10T01:42:08.042Z,986.50
2023-04-10T01:43:08.026Z,986.45
2023-04-10T01:44:08.009Z,986.48
2023-04-10T01:45:08.012Z,986.54
2023-04-10T01:46:08.017Z,986.54
2023-04-10T01:47:07.995Z,986.55
2023-04-10T01:48:08.121Z,986.55
2023-04-10T01:49:07.964Z,986.56
2023-04-10T01:50:07.949Z,986.56
2023-04-10T01:51:07.936Z,986.57
2023-04-10T01:52:07.919Z,986.56
2023-04-10T01:53:07.905Z,986.58
2023-04-10T01:54:07.873Z,986.57
2023-04-10T01:55:07.879Z,986.58
2023-04-10T01:56:07.863Z,986.59
2023-04-10T01:57:07.854Z,986.62
2023-04-10T01:58:07.831Z,986.64
2023-04-10T01:59:07.822Z,986.67
2023-04-10T02:00:07.886Z,986.66
2023-04-10T02:01:08.099Z,986.68
2023-04-10T02:02:07.968Z,986.66
2023-04-10T02:03:08.058Z,986.64
2023-04-10T02:04:07.824Z,986.66
2023-04-10T02:05:07.837Z,986.68
2023-04-10T02:06:07.746Z,986.67
2023-04-10T02:07:07.736Z,986.69
2023-04-10T02:08:07.746Z,986.65
2023-04-10T02:09:07.712Z,986.65
2023-04-10T02:10:07.685Z,986.62
2023-04-10T02:11:07.670Z,986.61
2023-04-10T02:12:07.649Z,986.57
2023-04-10T02:13:07.663Z,986.59
2023-04-10T02:14:07.632Z,986.60
2023-04-10T02:15:07.621Z,986.60
2023-04-10T02:16:07.700Z,986.55
2023-04-10T02:17:07.598Z,986.64
2023-04-10T02:18:07.590Z,986.59
2023-04-10T02:19:07.560Z,986.59
2023-04-10T02:20:07.546Z,986.62
2023-04-10T02:21:07.551Z,986.61
2023-04-10T02:22:07.517Z,986.56
2023-04-10T02:23:07.523Z,986.58
2023-04-10T02:24:07.491Z,986.57
2023-04-10T02:25:07.486Z,986.52
2023-04-10T02:26:07.496Z,986.55
2023-04-10T02:27:07.484Z,986.55
2023-04-10T02:28:07.472Z,986.54
2023-04-10T02:29:07.477Z,986.58
2023-04-10T02:30:07.437Z,986.62
2023-04-10T02:31:07.471Z,986.55
2023-04-10T02:32:07.414Z,986.63
2023-04-10T02:33:07.398Z,986.62
2023-04-10T02:34:07.428Z,986.61
2023-04-10T02:35:07.360Z,986.60
2023-04-10T02:36:07.383Z,986.62
2023-04-10T02:37:07.353Z,986.64
2023-04-10T02:38:07.340Z,986.66
2023-04-10T02:39:07.346Z,986.71
2023-04-10T02:40:07.306Z,986.72
2023-04-10T02:41:07.284Z,986.71
2023-04-10T02:42:07.268Z,986.72
2023-04-10T02:43:07.278Z,986.69
2023-04-10T02:44:07.274Z,986.76
2023-04-10T02:45:07.249Z,986.74
2023-04-10T02:46:07.241Z,986.72
2023-04-10T02:47:07.297Z,986.73
2023-04-10T02:48:07.235Z,986.77
2023-04-10T02:49:07.185Z,986.75
2023-04-10T02:50:07.176Z,986.72
2023-04-10T02:51:07.168Z,986.77
2023-04-10T02:52:07.175Z,986.74
2023-04-10T02:53:07.144Z,986.70
2023-04-10T02:54:07.114Z,986.66
2023-04-10T02:55:07.162Z,986.65
2023-04-10T02:56:07.112Z,986.67
2023-04-10T02:57:07.107Z,986.67
2023-04-10T02:58:07.078Z,986.70
2023-04-10T02:59:07.053Z,986.68
2023-04-10T03:00:07.035Z,986.72
2023-04-10T03:01:07.035Z,986.64
2023-04-10T03:02:07.112Z,986.62
2023-04-10T03:03:07.125Z,986.63
2023-04-10T03:04:07.065Z,986.66
2023-04-10T03:05:06.989Z,986.60
2023-04-10T03:06:08.039Z,986.66
2023-04-10T03:07:06.967Z,986.64
2023-04-10T03:08:06.943Z,986.63
2023-04-10T03:09:06.932Z,986.61
2023-04-10T03:10:06.956Z,986.65
2023-04-10T03:11:06.920Z,986.60
2023-04-10T03:12:06.895Z,986.62
2023-04-10T03:13:06.888Z,986.63
2023-04-10T03:14:06.876Z,986.67
2023-04-10T03:15:06.870Z,986.64
2023-04-10T03:16:06.925Z,986.66
2023-04-10T03:17:06.834Z,986.70
2023-04-10T03:18:06.841Z,986.75
2023-04-10T03:19:06.820Z,986.72
2023-04-10T03:20:06.801Z,986.78
2023-04-10T03:21:06.786Z,986.74
2023-04-10T03:22:06.799Z,986.80
2023-04-10T03:23:06.755Z,986.76
2023-04-10T03:24:06.739Z,986.72
2023-04-10T03:25:06.729Z,986.64
2023-04-10T03:26:06.720Z,986.70
2023-04-10T03:27:06.697Z,986.69
2023-04-10T03:28:06.699Z,986.68
2023-04-10T03:29:06.679Z,986.64
2023-04-10T03:30:06.668Z,986.55
2023-04-10T03:31:06.684Z,986.60
2023-04-10T03:32:06.665Z,986.57
2023-04-10T03:33:06.630Z,986.63
2023-04-10T03:34:06.650Z,986.60
2023-04-10T03:35:06.613Z,986.54
2023-04-10T03:36:06.678Z,986.60
2023-04-10T03:37:06.607Z,986.48
2023-04-10T03:38:06.571Z,986.52
2023-04-10T03:39:06.550Z,986.56
2023-04-10T03:40:06.541Z,986.53
2023-04-10T03:41:06.527Z,986.50
2023-04-10T03:42:06.525Z,986.59
2023-04-10T03:43:06.506Z,986.56
2023-04-10T03:44:06.482Z,986.54
2023-04-10T03:45:06.472Z,986.51
2023-04-10T03:46:06.472Z,986.55
2023-04-10T03:47:06.513Z,986.52
2023-04-10T03:48:06.488Z,986.53
2023-04-10T03:49:13.428Z,986.54
2023-04-10T04:02:40.393Z,986.51
2023-04-10T04:03:40.326Z,986.52
2023-04-10T04:04:40.310Z,986.57
2023-04-10T04:05:40.197Z,986.51
2023-04-10T04:06:40.183Z,986.58
2023-04-10T04:07:40.170Z,986.55
2023-04-10T04:08:40.142Z,986.54
2023-04-10T04:09:40.142Z,986.55
2023-04-10T04:10:40.133Z,986.56
2023-04-10T04:11:40.101Z,986.53
2023-04-10T04:12:40.124Z,986.59
2023-04-10T04:13:40.094Z,986.56
2023-04-10T04:14:40.070Z,986.59
2023-04-10T04:15:40.062Z,986.55
2023-04-10T04:16:40.158Z,986.55
2023-04-10T04:17:40.095Z,986.62
2023-04-10T04:18:40.029Z,986.57
2023-04-10T04:19:40.013Z,986.63
2023-04-10T04:20:40.023Z,986.58
2023-04-10T04:21:39.999Z,986.59
2023-04-10T04:22:39.996Z,986.57
2023-04-10T04:23:39.951Z,986.59
2023-04-10T04:24:39.942Z,986.55
2023-04-10T04:25:39.935Z,986.54
2023-04-10T04:26:39.921Z,986.52
2023-04-10T04:27:39.927Z,986.51
2023-04-10T04:28:39.905Z,986.53
2023-04-10T04:29:39.877Z,986.52
2023-04-10T04:30:39.878Z,986.61
2023-04-10T04:31:39.963Z,986.51
2023-04-10T04:32:39.906Z,986.55
2023-04-10T04:33:39.842Z,986.56
2023-04-10T04:34:39.851Z,986.56
2023-04-10T04:35:39.879Z,986.59
2023-04-10T04:36:39.804Z,986.54
2023-04-10T04:37:39.791Z,986.54
2023-04-10T04:38:39.797Z,986.60
2023-04-10T04:39:39.793Z,986.65
2023-04-10T04:40:39.755Z,986.65
2023-04-10T04:41:39.738Z,986.66
2023-04-10T04:42:39.735Z,986.68
2023-04-10T04:43:39.724Z,986.73
2023-04-10T04:44:39.716Z,986.72
2023-04-10T04:45:39.722Z,986.72
2023-04-10T04:46:39.915Z,986.72
2023-04-10T04:47:39.671Z,986.80
2023-04-10T04:48:39.688Z,986.79
2023-04-10T04:49:39.649Z,986.70
2023-04-10T04:50:39.621Z,986.75
2023-04-10T04:51:39.617Z,986.74
2023-04-10T04:52:39.622Z,986.76
2023-04-10T04:53:39.600Z,986.74
2023-04-10T04:54:39.595Z,986.71
2023-04-10T04:55:39.554Z,986.75
2023-04-10T04:56:39.568Z,986.75
2023-04-10T04:57:39.554Z,986.76
2023-04-10T04:58:39.577Z,986.76
2023-04-10T04:59:39.527Z,986.85
2023-04-10T05:00:39.513Z,986.82
2023-04-10T05:01:39.560Z,986.86
2023-04-10T05:02:39.606Z,986.85
2023-04-10T05:03:39.559Z,986.90
2023-04-10T05:04:39.456Z,986.91
2023-04-10T05:05:39.440Z,986.91
2023-04-10T05:06:39.418Z,986.95
2023-04-10T05:07:39.410Z,986.98
2023-04-10T05:08:39.413Z,986.91
2023-04-10T05:09:39.386Z,986.84
2023-04-10T05:10:39.397Z,986.90
2023-04-10T05:11:39.364Z,986.93
2023-04-10T05:12:39.360Z,986.98
2023-04-10T05:13:39.347Z,986.92
2023-04-10T05:14:39.324Z,986.96
2023-04-10T05:15:39.446Z,986.91
2023-04-10T05:16:39.309Z,986.94
2023-04-10T05:17:39.309Z,986.94
2023-04-10T05:18:39.335Z,987.00
2023-04-10T05:19:39.272Z,986.97
2023-04-10T05:20:39.260Z,986.96
2023-04-10T05:21:39.244Z,986.94
2023-04-10T05:22:39.278Z,986.97
2023-04-10T05:23:39.197Z,986.94
2023-04-10T05:24:39.199Z,986.97
2023-04-10T05:25:39.195Z,986.96
2023-04-10T05:26:39.189Z,986.99
2023-04-10T05:27:39.161Z,986.99
2023-04-10T05:28:39.154Z,986.97
2023-04-10T05:29:39.162Z,986.93
2023-04-10T05:30:39.142Z,986.88
2023-04-10T05:31:39.150Z,986.93
2023-04-10T05:32:39.105Z,986.93
2023-04-10T05:33:39.108Z,986.85
2023-04-10T05:34:39.074Z,986.92
2023-04-10T05:35:39.078Z,986.81
2023-04-10T05:36:39.054Z,986.84
2023-04-10T05:37:39.035Z,986.85
2023-04-10T05:38:39.014Z,986.75
2023-04-10T05:39:39.044Z,986.84
2023-04-10T05:40:39.008Z,986.78
2023-04-10T05:41:38.988Z,986.80
2023-04-10T05:42:38.974Z,986.85
2023-04-10T05:43:38.986Z,986.83
2023-04-10T05:44:38.943Z,986.78
2023-04-10T05:45:38.926Z,986.73
2023-04-10T05:46:38.957Z,986.77
2023-04-10T05:47:38.964Z,986.79
2023-04-10T05:48:38.913Z,986.65
2023-04-10T05:49:38.880Z,986.68
2023-04-10T05:50:38.890Z,986.76
2023-04-10T05:51:38.876Z,986.71
2023-04-10T05:52:38.847Z,986.73
2023-04-10T05:53:38.862Z,986.75
2023-04-10T05:54:38.860Z,986.71
2023-04-10T05:55:38.808Z,986.75
2023-04-10T05:56:38.800Z,986.74
2023-04-10T05:57:38.776Z,986.77
2023-04-10T05:58:38.780Z,986.76
2023-04-10T05:59:38.767Z,986.75
2023-04-10T06:00:38.756Z,986.76
2023-04-10T06:01:38.803Z,986.78
2023-04-10T06:02:38.857Z,986.80
2023-04-10T06:03:38.915Z,986.72
2023-04-10T06:04:38.935Z,986.75
2023-04-10T06:05:38.674Z,986.75
2023-04-10T06:06:38.671Z,986.73
2023-04-10T06:07:38.648Z,986.71
2023-04-10T06:08:38.654Z,986.74
2023-04-10T06:09:38.653Z,986.70
2023-04-10T06:10:38.616Z,986.73
2023-04-10T06:11:38.599Z,986.70
2023-04-10T06:12:38.596Z,986.73
2023-04-10T06:13:38.590Z,986.71
2023-04-10T06:14:38.594Z,986.72
2023-04-10T06:15:38.605Z,986.69
2023-04-10T06:16:38.647Z,986.72
2023-04-10T06:17:38.540Z,986.67
2023-04-10T06:18:38.523Z,986.69
2023-04-10T06:19:38.508Z,986.66
2023-04-10T06:20:38.493Z,986.66
2023-04-10T06:21:38.474Z,986.60
2023-04-10T06:22:38.472Z,986.67
2023-04-10T06:23:38.450Z,986.62
2023-04-10T06:24:38.458Z,986.63
2023-04-10T06:25:38.465Z,986.62
2023-04-10T06:26:38.440Z,986.64
2023-04-10T06:27:38.405Z,986.57
2023-04-10T06:28:38.408Z,986.66
2023-04-10T06:29:38.428Z,986.59
2023-04-10T06:30:38.383Z,986.58
2023-04-10T06:31:38.384Z,986.61
2023-04-10T06:32:38.385Z,986.62
2023-04-10T06:33:38.338Z,986.56
2023-04-10T06:34:38.325Z,986.60
2023-04-10T06:35:38.344Z,986.64
2023-04-10T06:36:38.303Z,986.64
2023-04-10T06:37:38.307Z,986.58
2023-04-10T06:38:38.263Z,986.52
2023-04-10T06:39:38.274Z,986.53
2023-04-10T06:40:38.281Z,986.59
2023-04-10T06:41:38.215Z,986.55
2023-04-10T06:42:38.251Z,986.57
2023-04-10T06:43:38.208Z,986.53
2023-04-10T06:44:38.212Z,986.52
2023-04-10T06:45:38.203Z,986.52
2023-04-10T06:46:38.291Z,986.53
2023-04-10T06:47:38.183Z,986.49
2023-04-10T06:48:38.137Z,986.47
2023-04-10T06:49:38.123Z,986.53
2023-04-10T06:50:38.112Z,986.50
2023-04-10T06:51:38.099Z,986.49
2023-04-10T06:52:38.109Z,986.53
2023-04-10T06:53:38.080Z,986.52
2023-04-10T06:54:38.089Z,986.48
2023-04-10T06:55:38.042Z,986.49
2023-04-10T06:56:38.054Z,986.48
2023-04-10T06:57:38.020Z,986.52
2023-04-10T06:58:38.042Z,986.45
2023-04-10T06:59:38.005Z,986.43
2023-04-10T07:00:38.022Z,986.46
2023-04-10T07:01:38.024Z,986.42
2023-04-10T07:02:38.022Z,986.46
2023-04-10T07:03:37.988Z,986.44
2023-04-10T07:04:37.935Z,986.45
2023-04-10T07:05:39.493Z,986.40
2023-04-10T07:06:38.020Z,986.45
2023-04-10T07:07:37.881Z,986.45
2023-04-10T07:08:37.876Z,986.48
2023-04-10T07:09:37.873Z,986.49
2023-04-10T07:10:37.891Z,986.45
2023-04-10T07:11:37.842Z,986.48
2023-04-10T07:12:37.832Z,986.53
2023-04-10T07:13:37.805Z,986.50
2023-04-10T07:14:37.800Z,986.50
2023-04-10T07:15:37.809Z,986.50
2023-04-10T07:16:37.848Z,986.51
2023-04-10T07:17:37.823Z,986.54
2023-04-10T07:18:37.753Z,986.50
2023-04-10T07:19:37.749Z,986.49
2023-04-10T07:20:37.755Z,986.55
2023-04-10T07:21:37.716Z,986.53
2023-04-10T07:22:37.729Z,986.55
2023-04-10T07:23:37.708Z,986.51
2023-04-10T07:24:37.730Z,986.52
2023-04-10T07:25:37.677Z,986.51
2023-04-10T07:26:37.662Z,986.54
2023-04-10T07:27:37.622Z,986.54
2023-04-10T07:28:37.642Z,986.48
2023-04-10T07:29:37.613Z,986.53
2023-04-10T07:30:37.617Z,986.47
2023-04-10T07:31:37.712Z,986.48
2023-04-10T07:32:37.720Z,986.49
2023-04-10T07:33:37.581Z,986.51
2023-04-10T07:34:37.560Z,986.47
2023-04-10T07:35:37.552Z,986.43
2023-04-10T07:36:37.524Z,986.50
2023-04-10T07:37:37.509Z,986.41
2023-04-10T07:38:37.527Z,986.47
2023-04-10T07:39:37.484Z,986.45
2023-04-10T07:40:37.476Z,986.41
2023-04-10T07:41:37.464Z,986.41
2023-04-10T07:42:37.481Z,986.40
2023-04-10T07:43:37.416Z,986.36
2023-04-10T07:44:37.413Z,986.35
2023-04-10T07:45:37.463Z,986.32
2023-04-10T07:46:37.387Z,986.22
2023-04-10T07:47:37.389Z,986.26
2023-04-10T07:48:37.362Z,986.30
2023-04-10T07:49:37.347Z,986.19
2023-04-10T07:50:37.340Z,986.18
2023-04-10T07:51:37.326Z,986.21
2023-04-10T07:52:37.322Z,986.28
2023-04-10T07:53:37.321Z,986.23
2023-04-10T07:54:37.289Z,986.23
2023-04-10T07:55:37.272Z,986.17
2023-04-10T07:56:37.260Z,986.14
2023-04-10T07:57:37.268Z,986.19
2023-04-10T07:58:37.223Z,986.14
2023-04-10T07:59:37.217Z,986.25
2023-04-10T08:00:37.216Z,986.12
2023-04-10T08:01:37.218Z,986.15
2023-04-10T08:02:37.374Z,986.16
2023-04-10T08:03:37.287Z,986.15
2023-04-10T08:04:37.323Z,986.15
2023-04-10T08:05:37.154Z,986.16
2023-04-10T08:06:37.122Z,986.18
2023-04-10T08:07:37.117Z,986.15
2023-04-10T08:08:37.108Z,986.17
2023-04-10T08:09:37.080Z,986.16
2023-04-10T08:10:37.106Z,986.18
2023-04-10T08:11:38.269Z,986.16
2023-04-10T08:12:37.043Z,986.18
2023-04-10T08:13:37.032Z,986.13
2023-04-10T08:14:37.037Z,986.18
2023-04-10T08:15:37.038Z,986.24
2023-04-10T08:16:37.098Z,986.11
2023-04-10T08:17:37.022Z,986.20
2023-04-10T08:18:36.964Z,986.15
2023-04-10T08:19:36.974Z,986.12
2023-04-10T08:20:37.066Z,986.02
2023-04-10T08:21:36.974Z,986.18
2023-04-10T08:22:36.934Z,986.09
2023-04-10T08:23:36.895Z,986.18
2023-04-10T08:24:36.903Z,986.17
2023-04-10T08:25:36.881Z,986.08
2023-04-10T08:26:36.880Z,986.14
2023-04-10T08:27:36.856Z,986.15
2023-04-10T08:28:36.827Z,986.10
2023-04-10T08:29:36.838Z,986.15
2023-04-10T08:30:36.839Z,986.12
2023-04-10T08:31:36.835Z,986.01
2023-04-10T08:32:36.821Z,986.08
2023-04-10T08:33:36.779Z,986.05
2023-04-10T08:34:36.781Z,986.05
2023-04-10T08:35:36.763Z,985.94
2023-04-10T08:36:36.773Z,986.03
2023-04-10T08:37:37.114Z,986.02
2023-04-10T08:38:36.732Z,986.08
2023-04-10T08:39:36.713Z,985.98
2023-04-10T08:40:36.688Z,985.94
2023-04-10T08:41:36.670Z,986.00
2023-04-10T08:42:36.668Z,986.03
2023-04-10T08:43:36.668Z,986.00
2023-04-10T08:44:36.645Z,986.03
2023-04-10T08:45:36.619Z,986.04
2023-04-10T08:46:36.751Z,985.97
2023-04-10T08:47:36.611Z,985.95
2023-04-10T08:48:36.592Z,986.00
2023-04-10T08:49:36.578Z,985.92
2023-04-10T08:50:36.564Z,986.03
2023-04-10T08:51:36.565Z,985.91
2023-04-10T08:52:36.538Z,985.94
2023-04-10T08:53:36.535Z,985.91
2023-04-10T08:54:36.496Z,985.91
2023-04-10T08:55:36.504Z,985.92
2023-04-10T08:56:36.482Z,985.90
2023-04-10T08:57:36.894Z,985.83
2023-04-10T08:58:36.455Z,985.83
2023-04-10T08:59:36.442Z,985.83
2023-04-10T09:00:36.431Z,985.78
2023-04-10T09:01:36.520Z,985.89
2023-04-10T09:02:37.317Z,985.84
2023-04-10T09:03:36.524Z,985.87
2023-04-10T09:04:36.457Z,985.87
2023-04-10T09:05:36.368Z,985.83
2023-04-10T09:06:36.353Z,985.80
2023-04-10T09:07:36.350Z,985.91
2023-04-10T09:08:36.329Z,985.89
2023-04-10T09:09:36.322Z,985.89
2023-04-10T09:10:36.314Z,985.92
2023-04-10T09:11:36.282Z,985.85
2023-04-10T09:12:36.282Z,985.89
2023-04-10T09:13:36.263Z,985.85
2023-04-10T09:14:36.255Z,985.82
2023-04-10T09:15:36.261Z,985.83
2023-04-10T09:16:36.213Z,985.81
2023-04-10T09:17:36.231Z,985.74
2023-04-10T09:18:36.188Z,985.83
2023-04-10T09:19:36.192Z,985.78
2023-04-10T09:20:36.171Z,985.75
2023-04-10T09:21:36.163Z,985.77
2023-04-10T09:22:36.168Z,985.81
2023-04-10T09:23:36.140Z,985.78
2023-04-10T09:24:36.113Z,985.71
2023-04-10T09:25:36.105Z,985.71
2023-04-10T09:26:36.091Z,985.67
2023-04-10T09:27:36.107Z,985.67
2023-04-10T09:28:36.073Z,985.67
2023-04-10T09:29:36.062Z,985.65
2023-04-10T09:30:36.044Z,985.54
2023-04-10T09:31:36.125Z,985.52
2023-04-10T09:32:36.057Z,985.61
2023-04-10T09:33:36.004Z,985.47
2023-04-10T09:34:35.989Z,985.55
2023-04-10T09:35:35.984Z,985.45
2023-04-10T09:36:36.029Z,985.50
2023-04-10T09:37:35.989Z,985.51
2023-04-10T09:38:35.936Z,985.54
2023-04-10T09:39:35.925Z,985.48
2023-04-10T09:40:35.933Z,985.50
2023-04-10T09:41:35.907Z,985.43
2023-04-10T09:42:35.898Z,985.46
2023-04-10T09:43:35.880Z,985.46
2023-04-10T09:44:35.906Z,985.46
2023-04-10T09:45:35.871Z,985.37
2023-04-10T09:46:35.873Z,985.43
2023-04-10T10:03:01.590Z,985.00
2023-04-10T10:04:01.402Z,985.02
2023-04-10T10:05:01.471Z,984.93
2023-04-10T10:06:01.368Z,984.94
2023-04-10T10:07:01.362Z,985.00
2023-04-10T10:08:01.360Z,985.01
2023-04-10T10:09:01.355Z,985.07
2023-04-10T10:10:01.318Z,985.01
2023-04-10T10:11:01.310Z,984.94
2023-04-10T10:12:01.300Z,984.94
2023-04-10T10:13:01.298Z,984.91
2023-04-10T10:14:01.292Z,984.89
2023-04-10T10:15:01.249Z,984.84
2023-04-10T10:16:01.272Z,984.88
2023-04-10T10:17:01.226Z,984.93
2023-04-10T10:18:01.250Z,984.97
2023-04-10T10:19:01.319Z,984.80
2023-04-10T10:20:01.214Z,984.83
2023-04-10T10:21:01.191Z,984.87
2023-04-10T10:22:01.210Z,984.77
2023-04-10T10:23:01.183Z,984.85
2023-04-10T10:24:01.161Z,984.73
2023-04-10T10:25:01.169Z,984.66
2023-04-10T10:26:03.182Z,984.66
2023-04-10T10:27:01.117Z,984.72
2023-04-10T10:28:01.096Z,984.73
2023-04-10T10:29:01.104Z,984.67
2023-04-10T10:30:05.483Z,984.71
2023-04-10T10:31:02.070Z,984.67
2023-04-10T10:32:01.066Z,984.68
2023-04-10T10:33:01.060Z,984.68
2023-04-10T10:34:01.028Z,984.58
2023-04-10T10:35:00.992Z,984.55
2023-04-10T10:36:01.028Z,984.62
2023-04-10T10:37:00.987Z,984.52
2023-04-10T10:38:01.143Z,984.48
2023-04-10T10:39:00.975Z,984.54
2023-04-10T10:40:00.958Z,984.44
2023-04-10T10:41:00.966Z,984.54
2023-04-10T10:42:00.927Z,984.48
2023-04-10T10:43:00.924Z,984.58
2023-04-10T10:44:00.879Z,984.61
2023-04-10T10:45:00.895Z,984.55
2023-04-10T10:46:00.906Z,984.52
2023-04-10T10:47:00.859Z,984.43
2023-04-10T10:48:00.897Z,984.41
2023-04-10T10:49:00.853Z,984.47
2023-04-10T10:50:00.834Z,984.49
2023-04-10T10:51:00.810Z,984.47
2023-04-10T10:52:00.799Z,984.39
2023-04-10T10:53:00.779Z,984.32
2023-04-10T10:54:00.750Z,984.32
2023-04-10T10:55:00.796Z,984.22
2023-04-10T10:56:00.744Z,984.26
2023-04-10T10:57:00.739Z,984.22
2023-04-10T10:58:00.711Z,984.19
2023-04-10T10:59:00.697Z,984.25
2023-04-10T11:00:00.690Z,984.20
2023-04-10T11:01:00.706Z,984.22
2023-04-10T11:02:00.724Z,984.18
2023-04-10T11:03:00.826Z,984.28
2023-04-10T11:04:00.784Z,984.17
2023-04-10T11:05:00.627Z,984.18
2023-04-10T11:06:00.619Z,984.12
2023-04-10T11:07:00.605Z,984.10
2023-04-10T11:08:00.603Z,984.07
2023-04-10T11:09:00.565Z,984.15
2023-04-10T11:10:00.553Z,984.13
2023-04-10T11:11:00.571Z,984.09
2023-04-10T11:12:00.531Z,984.08
2023-04-10T11:13:00.531Z,984.07
2023-04-10T11:14:00.515Z,984.06
2023-04-10T11:15:00.480Z,984.07
2023-04-10T11:16:00.466Z,984.02
2023-04-10T11:17:00.624Z,984.01
2023-04-10T11:18:00.507Z,984.00
2023-04-10T11:19:13.126Z,983.98
2023-04-10T11:20:01.451Z,984.02
2023-04-10T11:21:00.432Z,984.02
2023-04-10T11:22:00.418Z,983.98
2023-04-10T11:23:00.391Z,983.96
2023-04-10T11:24:00.389Z,984.04
2023-04-10T11:25:00.507Z,983.94
2023-04-10T11:26:00.369Z,983.90
2023-04-10T11:27:00.344Z,983.88
2023-04-10T11:28:00.324Z,983.88
2023-04-10T11:29:00.310Z,983.91
2023-04-10T11:30:00.289Z,983.91
2023-04-10T11:31:00.292Z,983.96
2023-04-10T11:32:00.281Z,983.98
2023-04-10T11:33:00.354Z,983.85
2023-04-10T11:34:00.259Z,983.82
2023-04-10T11:35:00.596Z,983.77
2023-04-10T11:36:00.253Z,983.76
2023-04-10T11:37:00.193Z,983.75
2023-04-10T11:38:00.191Z,983.80
2023-04-10T11:39:00.190Z,983.63
2023-04-10T11:40:00.168Z,983.70
2023-04-10T11:41:00.181Z,983.69
2023-04-10T11:42:00.151Z,983.81
2023-04-10T11:43:00.135Z,983.85
2023-04-10T11:44:00.175Z,983.71
2023-04-10T11:45:00.137Z,983.64
2023-04-10T11:46:00.175Z,983.65
2023-04-10T11:47:00.110Z,983.62
2023-04-10T11:48:00.119Z,983.64
2023-04-10T11:49:00.058Z,983.59
2023-04-10T11:50:00.055Z,983.56
2023-04-10T11:51:00.086Z,983.64
2023-04-10T11:52:00.065Z,983.58
2023-04-10T11:53:00.004Z,983.53
2023-04-10T11:53:59.971Z,983.68
2023-04-10T11:54:59.980Z,983.69
2023-04-10T11:55:59.973Z,983.45
2023-04-10T11:56:59.965Z,983.70
2023-04-10T11:57:59.931Z,983.70
2023-04-10T11:58:59.920Z,983.64
2023-04-10T11:59:59.960Z,983.54
2023-04-10T12:00:59.893Z,983.57
2023-04-10T12:01:59.963Z,983.46
2023-04-10T12:03:00.066Z,983.50
2023-04-10T12:03:59.970Z,983.45
2023-04-10T12:04:59.905Z,983.36
2023-04-10T12:05:59.856Z,983.35
2023-04-10T12:06:59.830Z,983.32
2023-04-10T12:07:59.787Z,983.29
2023-04-10T12:08:59.802Z,983.34
2023-04-10T12:09:59.780Z,983.35
2023-04-10T12:10:59.774Z,983.37
2023-04-10T12:11:59.816Z,983.35
2023-04-10T12:12:59.731Z,983.31
2023-04-10T12:13:59.729Z,983.48
2023-04-10T12:14:59.712Z,983.33
2023-04-10T12:15:59.749Z,983.38
2023-04-10T12:16:59.697Z,983.36
2023-04-10T12:17:59.670Z,983.45
2023-04-10T12:18:59.673Z,983.36
2023-04-10T12:19:59.645Z,983.41
2023-04-10T12:20:59.652Z,983.31
2023-04-10T12:21:59.656Z,983.30
2023-04-10T12:22:59.608Z,983.35
2023-04-10T12:23:59.618Z,983.32
2023-04-10T12:24:59.665Z,983.26
2023-04-10T12:25:59.559Z,983.30
2023-04-10T12:27:00.430Z,983.34
2023-04-10T12:27:59.540Z,983.24
2023-04-10T12:28:59.551Z,983.31
2023-04-10T12:29:59.537Z,983.22
2023-04-10T12:30:59.537Z,983.25
2023-04-10T12:31:59.490Z,983.26
2023-04-10T12:32:59.538Z,983.21
2023-04-10T12:33:59.473Z,983.23
2023-04-10T12:34:59.514Z,983.14
2023-04-10T12:35:59.474Z,983.12
2023-04-10T12:36:59.449Z,983.17
2023-04-10T12:37:59.436Z,983.14
2023-04-10T12:38:59.424Z,983.06
2023-04-10T12:39:59.405Z,983.04
2023-04-10T12:40:59.388Z,982.95
2023-04-10T12:41:59.371Z,982.94
2023-04-10T12:42:59.362Z,982.97
2023-04-10T12:43:59.385Z,983.02
2023-04-10T12:44:59.393Z,983.02
2023-04-10T12:45:59.341Z,982.94
2023-04-10T12:46:59.390Z,982.94
2023-04-10T12:47:59.340Z,982.98
2023-04-10T12:48:59.292Z,983.00
2023-04-10T12:49:59.350Z,982.97
2023-04-10T12:50:59.262Z,982.93
2023-04-10T12:51:59.243Z,982.85
2023-04-10T12:52:59.233Z,982.85
2023-04-10T12:53:59.217Z,982.81
2023-04-10T12:54:59.212Z,982.81
2023-04-10T12:55:59.177Z,982.80